Aviation Digital Data Service (ADDS)

Output produced by METARs form (0348 UTC 19 July 2018)
found at http://www.aviationweather.gov/adds/metars/
 
EPLL 190330Z 28006KT 8000 -SHRA BKN004CB 18/18 Q1010 RESHRA
TAF EPLL 182330Z 1900/1924 28006KT 9999 BKN004 BKN010 
     TEMPO 1900/1906 3000 SHRA BKN002 BKN010CB 
     BECMG 1908/1910 BKN016 
     TEMPO 1917/1924 4000 SHRA BKN006 BKN015CB 
     PROB40 
     TEMPO 1917/1921 TSRA 
     BECMG 1919/1922 BKN003